Time;durP1;ratioP1;P1;durP2;ratioP2;P2;SDS_P1;SDS_P2;PMS_P1;PMS_P2;Temp;Humidity;BMP_temperature;BMP_pressure;BME280_temperature;BME280_humidity;BME280_pressure;Samples;Min_cycle;Max_cycle;Signal;HPM_P1;HPM_P2
2023/04/24 00:01:09;;;;;;;9.40;8.70;;;;;;;;;;5036818;28;20278;-82
2023/04/24 00:03:34;;;;;;;9.70;8.87;;;;;;;;;;5038211;28;20242;-85
2023/04/24 00:06:02;;;;;;;9.23;8.43;;;;;;;;;;5015826;28;20306;-84
2023/04/24 00:08:30;;;;;;;9.30;8.60;;;;;;;;;;5040768;28;20292;-84
2023/04/24 00:10:58;;;;;;;9.40;8.60;;;;;;;;;;5057735;28;20235;-82
2023/04/24 00:13:25;;;;;;;9.90;9.07;;;;;;;;;;5064098;28;20216;-84
2023/04/24 00:15:55;;;;;;;9.20;8.50;;;;;;;;;;5023954;28;20216;-83
2023/04/24 00:18:20;;;;;;;9.90;9.00;;;;;;;;;;5036604;28;20251;-82
2023/04/24 00:20:46;;;;;;;9.23;8.47;;;;;;;;;;5034702;28;20228;-81
2023/04/24 00:23:14;;;;;;;9.20;8.40;;;;;;;;;;5050137;28;20267;-81
2023/04/24 00:25:42;;;;;;;9.27;8.57;;;;;;;;;;5048561;28;20242;-81
2023/04/24 00:28:11;;;;;;;8.83;8.10;;;;;;;;;;5048287;28;20242;-85
2023/04/24 00:30:40;;;;;;;9.47;8.50;;;;;;;;;;5040726;28;20715;-83
2023/04/24 00:33:05;;;;;;;8.23;7.63;;;;;;;;;;5043429;28;20255;-82
2023/04/24 00:35:31;;;;;;;8.37;7.57;;;;;;;;;;5041730;28;20695;-82
2023/04/24 00:37:57;;;;;;;7.13;6.63;;;;;;;;;;5002211;28;20223;-83
2023/04/24 00:40:25;;;;;;;6.70;6.20;;;;;;;;;;5041677;28;20224;-83
2023/04/24 00:42:58;;;;;;;6.27;5.80;;;;;;;;;;5059055;28;20222;-82
2023/04/24 00:45:23;;;;;;;5.60;5.10;;;;;;;;;;5031859;28;20215;-82
2023/04/24 00:47:51;;;;;;;6.27;5.77;;;;;;;;;;5047735;28;20222;-83
2023/04/24 00:50:21;;;;;;;5.83;5.33;;;;;;;;;;5049237;28;20653;-84
2023/04/24 00:52:54;;;;;;;5.40;5.00;;;;;;;;;;5041559;28;20231;-83
2023/04/24 00:55:20;;;;;;;5.00;4.60;;;;;;;;;;5026758;28;20227;-82
2023/04/24 00:57:47;;;;;;;6.33;4.47;;;;;;;;;;5032977;28;20248;-84
2023/04/24 01:00:16;;;;;;;4.57;4.20;;;;;;;;;;5040106;28;20225;-83
2023/04/24 01:02:46;;;;;;;4.20;3.90;;;;;;;;;;5042541;28;20252;-84
2023/04/24 01:05:15;;;;;;;3.87;3.57;;;;;;;;;;5047040;28;20216;-84
2023/04/24 01:07:43;;;;;;;4.27;3.97;;;;;;;;;;5018191;28;20222;-83
2023/04/24 01:10:12;;;;;;;3.40;3.10;;;;;;;;;;5047126;28;20225;-83
2023/04/24 01:12:37;;;;;;;2.83;2.63;;;;;;;;;;5050497;28;20208;-81
2023/04/24 01:15:07;;;;;;;3.00;2.80;;;;;;;;;;5043847;28;20270;-85
2023/04/24 01:17:36;;;;;;;4.03;3.10;;;;;;;;;;5001933;28;20255;-84
2023/04/24 01:20:05;;;;;;;2.80;2.60;;;;;;;;;;5032384;28;20223;-85
2023/04/24 01:22:34;;;;;;;2.97;2.57;;;;;;;;;;5041379;28;20234;-86
2023/04/24 01:25:02;;;;;;;2.63;2.43;;;;;;;;;;5049094;28;20199;-85
2023/04/24 01:27:30;;;;;;;2.60;2.40;;;;;;;;;;5035459;28;20212;-83
2023/04/24 01:29:58;;;;;;;2.00;1.90;;;;;;;;;;5032170;28;20221;-85
2023/04/24 01:32:26;;;;;;;2.47;1.87;;;;;;;;;;5028610;28;20224;-84
2023/04/24 01:34:55;;;;;;;2.20;2.00;;;;;;;;;;5049185;28;20243;-83
2023/04/24 01:37:26;;;;;;;2.57;2.23;;;;;;;;;;5030306;28;20238;-84
2023/04/24 01:39:52;;;;;;;3.10;2.30;;;;;;;;;;5003795;28;20380;-85
2023/04/24 01:42:19;;;;;;;3.13;2.10;;;;;;;;;;5019006;28;20518;-86
2023/04/24 01:44:48;;;;;;;2.47;2.27;;;;;;;;;;5021842;28;20211;-85
2023/04/24 01:47:14;;;;;;;2.33;2.13;;;;;;;;;;5041588;28;20222;-85
2023/04/24 01:49:39;;;;;;;2.03;1.93;;;;;;;;;;5025775;28;20224;-81
2023/04/24 01:52:06;;;;;;;2.70;2.50;;;;;;;;;;5003907;28;20222;-82
2023/04/24 01:54:34;;;;;;;2.13;1.93;;;;;;;;;;5021170;28;20318;-86
2023/04/24 01:57:04;;;;;;;2.83;2.57;;;;;;;;;;5030049;28;20268;-84
2023/04/24 01:59:32;;;;;;;2.40;2.20;;;;;;;;;;5043374;28;20230;-85
2023/04/24 02:01:57;;;;;;;2.60;2.10;;;;;;;;;;5006741;28;20235;-85
2023/04/24 02:04:28;;;;;;;2.60;2.23;;;;;;;;;;5007644;28;20230;-84
2023/04/24 02:06:56;;;;;;;1.97;1.80;;;;;;;;;;5039026;28;20219;-85
2023/04/24 02:09:24;;;;;;;2.10;1.90;;;;;;;;;;5021594;28;20220;-84
2023/04/24 02:11:50;;;;;;;2.00;1.90;;;;;;;;;;5025920;28;20250;-83
2023/04/24 02:14:17;;;;;;;3.00;1.90;;;;;;;;;;5038921;28;20227;-85
2023/04/24 02:16:45;;;;;;;2.03;1.90;;;;;;;;;;5041323;28;20220;-84
2023/04/24 02:19:11;;;;;;;1.90;1.80;;;;;;;;;;5033830;28;20224;-82
2023/04/24 02:21:38;;;;;;;1.60;1.50;;;;;;;;;;5039737;28;20262;-83
2023/04/24 02:24:07;;;;;;;2.10;1.90;;;;;;;;;;5040568;28;20216;-84
2023/04/24 02:26:35;;;;;;;2.20;1.60;;;;;;;;;;5019042;28;20212;-85
2023/04/24 02:29:03;;;;;;;2.40;1.50;;;;;;;;;;5017426;28;20238;-84
2023/04/24 02:31:31;;;;;;;1.70;1.60;;;;;;;;;;5041262;28;20784;-85
2023/04/24 02:33:57;;;;;;;1.40;1.30;;;;;;;;;;5057994;28;20221;-84
2023/04/24 02:36:25;;;;;;;1.60;1.37;;;;;;;;;;5034983;28;20222;-83
2023/04/24 02:38:53;;;;;;;1.53;1.43;;;;;;;;;;5042379;28;20220;-84
2023/04/24 02:41:19;;;;;;;1.50;1.40;;;;;;;;;;5045084;28;20698;-84
2023/04/24 02:43:47;;;;;;;1.77;1.67;;;;;;;;;;5041272;28;20606;-84
2023/04/24 02:46:12;;;;;;;1.67;1.40;;;;;;;;;;5028049;28;20451;-84
2023/04/24 02:48:40;;;;;;;1.67;1.40;;;;;;;;;;5040564;28;20219;-84
2023/04/24 02:51:06;;;;;;;1.47;1.37;;;;;;;;;;5041395;28;20234;-84
2023/04/24 02:53:32;;;;;;;2.00;1.30;;;;;;;;;;5030920;28;20752;-83
2023/04/24 02:55:57;;;;;;;1.30;1.20;;;;;;;;;;5027835;28;20318;-85
2023/04/24 02:58:23;;;;;;;1.30;1.20;;;;;;;;;;5041639;28;20237;-84
2023/04/24 03:00:49;;;;;;;1.30;1.20;;;;;;;;;;5015333;28;20314;-84
2023/04/24 03:03:15;;;;;;;1.87;1.30;;;;;;;;;;5038537;28;20216;-85
2023/04/24 03:05:43;;;;;;;1.30;1.20;;;;;;;;;;5040456;28;20215;-84
2023/04/24 03:08:11;;;;;;;1.67;1.20;;;;;;;;;;5054041;28;20234;-83
2023/04/24 03:10:39;;;;;;;1.37;1.23;;;;;;;;;;5039745;28;20621;-83
2023/04/24 03:13:07;;;;;;;1.30;1.20;;;;;;;;;;5053139;28;20216;-83
2023/04/24 03:15:33;;;;;;;1.27;1.17;;;;;;;;;;5042191;28;20538;-85
2023/04/24 03:18:00;;;;;;;1.30;1.20;;;;;;;;;;5054335;28;20219;-83
2023/04/24 03:20:28;;;;;;;1.13;1.03;;;;;;;;;;5055371;28;20246;-83
2023/04/24 03:22:56;;;;;;;1.10;1.00;;;;;;;;;;5041590;28;20223;-84
2023/04/24 03:25:25;;;;;;;1.27;1.00;;;;;;;;;;5052565;28;20224;-83
2023/04/24 03:27:54;;;;;;;1.37;1.00;;;;;;;;;;5015891;28;20215;-84
2023/04/24 03:30:46;;;;;;;1.03;1.03;;;;;;;;;;5055813;28;20230;-85
2023/04/24 03:33:12;;;;;;;0.97;0.97;;;;;;;;;;5053937;28;20295;-84
2023/04/24 03:35:48;;;;;;;0.83;0.83;;;;;;;;;;5054687;28;20233;-81
2023/04/24 03:38:13;;;;;;;0.93;0.93;;;;;;;;;;5054375;28;20232;-83
2023/04/24 03:40:55;;;;;;;1.27;1.03;;;;;;;;;;5034804;28;20275;-83
2023/04/24 03:43:44;;;;;;;1.33;0.90;;;;;;;;;;5054125;28;20211;-84
2023/04/24 03:46:10;;;;;;;0.90;0.90;;;;;;;;;;5031260;28;20219;-83
2023/04/24 03:48:42;;;;;;;0.80;0.80;;;;;;;;;;5060289;28;20223;-82
2023/04/24 03:51:09;;;;;;;1.00;1.00;;;;;;;;;;5028267;28;20295;-84
2023/04/24 03:53:36;;;;;;;0.83;0.83;;;;;;;;;;5052989;28;20207;-83
2023/04/24 03:56:04;;;;;;;0.90;0.90;;;;;;;;;;5030053;28;20212;-82
2023/04/24 03:58:31;;;;;;;1.40;1.07;;;;;;;;;;5053084;28;20211;-84
2023/04/24 04:00:57;;;;;;;0.80;0.80;;;;;;;;;;5044573;28;20583;-83
2023/04/24 04:03:45;;;;;;;0.80;0.80;;;;;;;;;;5045491;28;20243;-83
2023/04/24 04:06:13;;;;;;;0.80;0.80;;;;;;;;;;5031252;28;20539;-86
2023/04/24 04:08:41;;;;;;;0.80;0.80;;;;;;;;;;5046989;28;20224;-84
2023/04/24 04:11:07;;;;;;;1.43;0.93;;;;;;;;;;5026525;28;20227;-84
2023/04/24 04:13:33;;;;;;;0.90;0.87;;;;;;;;;;5049003;28;20214;-85
2023/04/24 04:15:59;;;;;;;0.77;0.77;;;;;;;;;;5038679;28;20224;-85
2023/04/24 04:18:26;;;;;;;0.80;0.80;;;;;;;;;;5048546;28;20239;-82
2023/04/24 04:20:52;;;;;;;0.70;0.70;;;;;;;;;;5046529;28;20240;-82
2023/04/24 04:23:17;;;;;;;1.37;0.80;;;;;;;;;;5034549;28;20223;-83
2023/04/24 04:25:55;;;;;;;0.80;0.80;;;;;;;;;;5030699;28;20246;-83
2023/04/24 04:28:27;;;;;;;0.70;0.70;;;;;;;;;;5044845;28;20224;-83
2023/04/24 04:30:57;;;;;;;0.70;0.70;;;;;;;;;;5046682;28;20298;-82
2023/04/24 04:33:25;;;;;;;0.90;0.90;;;;;;;;;;5010508;28;20297;-82
2023/04/24 04:35:56;;;;;;;0.70;0.70;;;;;;;;;;5050101;28;20227;-84
2023/04/24 04:42:20;;;;;;;0.87;0.80;;;;;;;;;;5031987;22;20274;-73
2023/04/24 04:44:46;;;;;;;1.37;0.90;;;;;;;;;;5007641;28;20221;-74
2023/04/24 04:47:31;;;;;;;1.00;0.80;;;;;;;;;;5021270;28;20228;-73
2023/04/24 04:49:58;;;;;;;0.80;0.80;;;;;;;;;;5000431;28;20216;-73
2023/04/24 04:52:29;;;;;;;1.10;0.80;;;;;;;;;;5003104;28;20220;-74
2023/04/24 04:55:07;;;;;;;0.80;0.80;;;;;;;;;;5018773;28;20221;-74
2023/04/24 04:57:53;;;;;;;0.70;0.70;;;;;;;;;;4998436;28;20232;-74
2023/04/24 05:00:19;;;;;;;1.10;1.00;;;;;;;;;;4996466;28;20284;-74
2023/04/24 05:02:51;;;;;;;1.00;1.00;;;;;;;;;;4984468;28;20217;-73
2023/04/24 05:05:29;;;;;;;2.40;1.03;;;;;;;;;;5017003;28;20224;-74
2023/04/24 05:07:58;;;;;;;1.70;1.07;;;;;;;;;;5014033;28;20208;-74
2023/04/24 05:10:24;;;;;;;1.30;1.20;;;;;;;;;;5018990;28;20890;-72
2023/04/24 05:12:52;;;;;;;1.43;1.20;;;;;;;;;;5015968;28;20643;-74
2023/04/24 08:40:07;;;;;;;6.87;6.30;;;;;;;;;;5043033;28;20231;-82
2023/04/24 08:42:36;;;;;;;7.20;6.50;;;;;;;;;;5015929;28;20268;-82
2023/04/24 08:45:02;;;;;;;6.97;6.37;;;;;;;;;;5052611;28;20231;-83
2023/04/24 08:47:31;;;;;;;7.10;6.40;;;;;;;;;;5036540;28;20215;-84
2023/04/24 08:50:02;;;;;;;7.10;6.40;;;;;;;;;;5041611;28;20219;-83
2023/04/24 08:52:31;;;;;;;7.87;6.37;;;;;;;;;;5048591;28;20243;-81
2023/04/24 08:54:58;;;;;;;6.90;6.30;;;;;;;;;;5057923;28;20241;-82
2023/04/24 08:57:26;;;;;;;7.73;7.03;;;;;;;;;;5047685;28;20274;-82
2023/04/24 09:00:28;;;;;;;8.20;7.40;;;;;;;;;;5008948;28;20222;-82
2023/04/24 09:02:57;;;;;;;8.60;7.80;;;;;;;;;;5032229;28;20253;-84
2023/04/24 09:05:26;;;;;;;8.07;7.17;;;;;;;;;;5040598;28;20227;-80
2023/04/24 09:08:00;;;;;;;9.13;7.53;;;;;;;;;;5036475;28;20234;-81
2023/04/24 09:10:27;;;;;;;8.60;7.80;;;;;;;;;;5052218;28;20214;-83
2023/04/24 09:12:58;;;;;;;8.63;7.83;;;;;;;;;;5043617;28;20199;-82
2023/04/24 09:15:29;;;;;;;9.53;8.63;;;;;;;;;;5025022;28;20286;-83
2023/04/24 09:17:57;;;;;;;8.07;7.37;;;;;;;;;;5040603;28;20231;-83
2023/04/24 09:20:23;;;;;;;8.95;7.97;;;;;;;;;;5029393;28;20239;-81
2023/04/24 09:22:57;;;;;;;8.55;7.72;;;;;;;;;;5029821;28;20246;-83
2023/04/24 09:25:40;;;;;;;8.48;7.68;;;;;;;;;;5025660;28;20230;-82
2023/04/24 09:28:06;;;;;;;8.82;8.00;;;;;;;;;;5029424;28;20230;-83
2023/04/24 09:30:35;;;;;;;8.40;7.50;;;;;;;;;;5051325;28;20688;-83
2023/04/24 09:33:18;;;;;;;9.67;8.77;;;;;;;;;;5022202;28;20258;-82
2023/04/24 09:35:54;;;;;;;8.23;7.33;;;;;;;;;;5072690;28;20226;-83
2023/04/24 09:38:25;;;;;;;7.67;6.97;;;;;;;;;;5028525;28;20215;-82
2023/04/24 09:40:53;;;;;;;7.10;6.50;;;;;;;;;;5016770;28;20211;-82
2023/04/24 09:43:51;;;;;;;7.60;6.90;;;;;;;;;;5013418;28;20246;-82
2023/04/24 09:46:50;;;;;;;;;;;;;;;;;;;;;
2023/04/24 09:49:34;;;;;;;8.57;7.77;;;;;;;;;;5034384;28;20226;-82
2023/04/24 09:52:04;;;;;;;9.37;7.00;;;;;;;;;;5053672;28;20223;-84
2023/04/24 09:54:30;;;;;;;7.70;6.90;;;;;;;;;;5022541;28;20226;-83
2023/04/24 09:56:56;;;;;;;8.40;6.50;;;;;;;;;;5026743;28;20314;-82
2023/04/24 09:59:32;;;;;;;6.87;6.27;;;;;;;;;;5023166;28;20224;-83
2023/04/24 10:02:01;;;;;;;7.22;6.60;;;;;;;;;;5035221;28;20221;-83
2023/04/24 10:08:22;;;;;;;5.80;5.30;;;;;;;;;;5048303;28;20227;-82
2023/04/24 10:10:50;;;;;;;5.93;5.43;;;;;;;;;;5047261;28;20215;-83
2023/04/24 10:13:16;;;;;;;6.00;5.50;;;;;;;;;;5038413;28;20230;-82
2023/04/24 10:15:46;;;;;;;5.72;5.22;;;;;;;;;;5003230;28;20772;-81
2023/04/24 10:18:22;;;;;;;6.30;5.70;;;;;;;;;;5020186;28;20273;-81
2023/04/24 10:21:10;;;;;;;5.90;5.40;;;;;;;;;;5048583;28;20219;-81
2023/04/24 10:23:45;;;;;;;6.15;5.65;;;;;;;;;;5075491;28;20252;-82
2023/04/24 10:26:17;;;;;;;7.15;5.82;;;;;;;;;;5042293;28;20219;-81
2023/04/24 10:28:52;;;;;;;6.20;5.32;;;;;;;;;;5026740;28;20638;-83
2023/04/24 10:31:35;;;;;;;6.47;5.45;;;;;;;;;;5031863;28;20237;-80
2023/04/24 10:34:00;;;;;;;6.40;5.80;;;;;;;;;;5043605;28;20227;-81
2023/04/24 10:36:42;;;;;;;5.57;5.07;;;;;;;;;;5054029;28;20235;-82
2023/04/24 10:39:19;;;;;;;5.43;4.93;;;;;;;;;;5043977;28;20231;-83
2023/04/24 10:41:49;;;;;;;5.95;5.38;;;;;;;;;;5012564;28;20309;-84
2023/04/24 10:44:17;;;;;;;6.53;5.93;;;;;;;;;;5033776;28;20218;-84
2023/04/24 10:46:55;;;;;;;6.00;5.40;;;;;;;;;;5032003;28;20217;-84
2023/04/24 10:49:32;;;;;;;5.90;5.30;;;;;;;;;;5026231;28;20292;-85
2023/04/24 10:52:04;;;;;;;5.63;5.13;;;;;;;;;;5045068;28;20227;-84
2023/04/24 10:54:40;;;;;;;4.97;4.50;;;;;;;;;;5038345;28;20234;-84
2023/04/24 10:57:20;;;;;;;4.97;4.57;;;;;;;;;;5022670;28;20234;-83
2023/04/24 11:00:25;;;;;;;5.40;4.70;;;;;;;;;;5053036;28;20226;-85
2023/04/24 11:02:55;;;;;;;5.18;4.68;;;;;;;;;;5046642;28;20314;-83
2023/04/24 11:05:41;;;;;;;5.50;5.00;;;;;;;;;;5003779;28;20215;-87
2023/04/24 11:08:35;;;;;;;5.20;4.80;;;;;;;;;;5032789;28;20761;-84
2023/04/24 11:11:25;;;;;;;5.63;5.13;;;;;;;;;;5043782;28;20398;-85
2023/04/24 11:13:57;;;;;;;4.87;4.47;;;;;;;;;;5020876;28;20214;-82
2023/04/24 11:16:40;;;;;;;5.47;4.90;;;;;;;;;;5047977;28;20231;-82
2023/04/24 11:19:15;;;;;;;5.20;4.70;;;;;;;;;;5030443;28;20291;-85
2023/04/24 11:21:51;;;;;;;4.47;4.07;;;;;;;;;;5038293;28;20235;-83
2023/04/24 11:24:47;;;;;;;4.30;3.90;;;;;;;;;;5050989;28;20286;-84
2023/04/24 11:27:38;;;;;;;3.80;3.50;;;;;;;;;;5038191;28;20306;-86
2023/04/24 11:30:09;;;;;;;4.03;3.63;;;;;;;;;;5025922;28;20274;-84
2023/04/24 11:32:43;;;;;;;4.13;3.72;;;;;;;;;;5032230;28;20246;-84
2023/04/24 11:35:14;;;;;;;3.57;3.27;;;;;;;;;;5021247;28;20298;-83
2023/04/24 11:37:42;;;;;;;5.00;3.58;;;;;;;;;;5062976;28;20231;-85
2023/04/24 11:40:19;;;;;;;4.03;3.13;;;;;;;;;;5036348;28;20819;-85
2023/04/24 11:43:01;;;;;;;3.60;3.30;;;;;;;;;;4994940;28;20227;-81
2023/04/24 11:45:30;;;;;;;3.00;2.80;;;;;;;;;;5040977;28;20238;-82
2023/04/24 11:47:58;;;;;;;3.40;3.10;;;;;;;;;;5035007;28;20242;-82
2023/04/24 11:50:28;;;;;;;3.10;2.90;;;;;;;;;;5015085;28;20224;-83
2023/04/24 11:53:12;;;;;;;3.22;3.00;;;;;;;;;;5015413;28;20254;-84
2023/04/24 11:55:40;;;;;;;3.00;2.63;;;;;;;;;;5037333;28;20580;-81
2023/04/24 11:58:08;;;;;;;2.85;2.47;;;;;;;;;;5040237;28;20367;-85
2023/04/24 12:00:38;;;;;;;2.42;2.30;;;;;;;;;;5064393;28;20227;-85
2023/04/24 12:03:10;;;;;;;2.50;2.30;;;;;;;;;;5050526;28;20234;-86
2023/04/24 12:05:36;;;;;;;2.50;2.30;;;;;;;;;;5035277;28;20756;-83
2023/04/24 12:08:10;;;;;;;2.20;2.10;;;;;;;;;;5033897;28;20226;-82
2023/04/24 12:10:36;;;;;;;2.30;1.93;;;;;;;;;;5047391;28;20239;-81
2023/04/24 12:13:06;;;;;;;2.10;1.90;;;;;;;;;;5032510;28;20240;-83
2023/04/24 12:15:43;;;;;;;2.20;2.00;;;;;;;;;;5052190;28;20249;-86
2023/04/24 12:18:12;;;;;;;2.10;2.00;;;;;;;;;;5032665;28;20234;-87
2023/04/24 12:20:38;;;;;;;2.03;1.92;;;;;;;;;;5046072;28;20243;-83
2023/04/24 12:23:03;;;;;;;2.90;1.90;;;;;;;;;;5023032;28;20268;-84
2023/04/24 12:25:37;;;;;;;2.20;2.00;;;;;;;;;;5065706;28;20223;-84
2023/04/24 12:28:03;;;;;;;1.70;1.60;;;;;;;;;;5013153;28;20693;-82
2023/04/24 12:30:29;;;;;;;1.77;1.67;;;;;;;;;;5055115;28;20226;-82
2023/04/24 12:32:57;;;;;;;1.90;1.80;;;;;;;;;;5019433;28;20807;-83
2023/04/24 12:35:23;;;;;;;2.25;2.05;;;;;;;;;;5011332;28;25732;-84
2023/04/24 12:37:49;;;;;;;3.10;1.80;;;;;;;;;;5013785;28;20238;-83
2023/04/24 12:40:18;;;;;;;1.93;1.70;;;;;;;;;;5028330;28;20232;-83
2023/04/24 12:42:49;;;;;;;1.70;1.60;;;;;;;;;;5011056;28;20718;-82
2023/04/24 12:45:24;;;;;;;1.77;1.67;;;;;;;;;;5028219;28;20216;-84
2023/04/24 12:47:49;;;;;;;1.60;1.50;;;;;;;;;;5034505;28;20290;-82
2023/04/24 12:50:16;;;;;;;1.88;1.77;;;;;;;;;;5037280;28;20281;-85
2023/04/24 12:52:42;;;;;;;1.88;1.70;;;;;;;;;;5052758;28;20695;-82
2023/04/24 12:55:11;;;;;;;2.30;1.73;;;;;;;;;;5011691;28;20223;-86
2023/04/24 12:57:40;;;;;;;2.20;2.00;;;;;;;;;;5044310;28;20243;-83
2023/04/24 13:00:07;;;;;;;3.28;2.10;;;;;;;;;;5054192;28;20202;-83
2023/04/24 13:02:35;;;;;;;2.20;1.85;;;;;;;;;;5015720;28;20218;-84
2023/04/24 13:05:06;;;;;;;1.70;1.60;;;;;;;;;;5043755;28;20234;-83
2023/04/24 13:07:35;;;;;;;1.98;1.77;;;;;;;;;;5069502;28;20278;-84
2023/04/24 13:10:04;;;;;;;1.88;1.50;;;;;;;;;;5054059;28;20211;-82
2023/04/24 13:12:29;;;;;;;1.60;1.50;;;;;;;;;;5033268;28;20249;-82
2023/04/24 13:14:55;;;;;;;1.70;1.60;;;;;;;;;;5059403;28;20223;-82
2023/04/24 13:17:33;;;;;;;1.90;1.70;;;;;;;;;;5051853;28;20214;-81
2023/04/24 13:19:59;;;;;;;1.70;1.60;;;;;;;;;;5033332;28;20230;-84
2023/04/24 13:22:27;;;;;;;1.90;1.80;;;;;;;;;;5035874;28;20223;-83
2023/04/24 13:24:56;;;;;;;2.00;1.87;;;;;;;;;;5034462;28;20227;-83
2023/04/24 13:27:22;;;;;;;1.70;1.60;;;;;;;;;;5053772;28;20206;-83
2023/04/24 13:29:54;;;;;;;2.43;1.90;;;;;;;;;;5016132;28;20525;-83
2023/04/24 13:32:20;;;;;;;1.93;1.83;;;;;;;;;;5035819;28;20286;-85
2023/04/24 13:34:45;;;;;;;21.37;4.80;;;;;;;;;;5008832;28;20241;-83
2023/04/24 13:37:17;;;;;;;3.33;1.73;;;;;;;;;;5031663;28;20230;-82
2023/04/24 13:39:47;;;;;;;3.40;1.90;;;;;;;;;;5034688;28;20223;-83
2023/04/24 13:42:20;;;;;;;3.10;2.10;;;;;;;;;;5035423;28;20235;-80
2023/04/24 13:44:48;;;;;;;2.60;1.60;;;;;;;;;;5036047;28;20227;-84
2023/04/24 13:47:14;;;;;;;0.90;0.90;;;;;;;;;;5061674;28;20696;-83
2023/04/24 13:49:42;;;;;;;1.40;1.30;;;;;;;;;;5046864;28;20227;-84
2023/04/24 13:52:10;;;;;;;1.30;1.20;;;;;;;;;;5042757;28;20234;-80
2023/04/24 13:54:38;;;;;;;1.33;1.00;;;;;;;;;;5008318;28;20719;-84
2023/04/24 13:57:06;;;;;;;1.03;1.03;;;;;;;;;;5031645;28;20234;-82
2023/04/24 13:59:38;;;;;;;1.73;1.40;;;;;;;;;;5043313;28;20214;-84
2023/04/24 14:02:07;;;;;;;1.50;1.40;;;;;;;;;;5013011;28;20234;-84
2023/04/24 14:04:40;;;;;;;1.77;1.67;;;;;;;;;;5025426;28;20250;-84
2023/04/24 14:07:10;;;;;;;1.93;1.50;;;;;;;;;;5054266;28;20239;-83
2023/04/24 14:09:38;;;;;;;2.10;1.73;;;;;;;;;;5022410;28;20231;-86
2023/04/24 14:12:07;;;;;;;1.60;1.50;;;;;;;;;;5030749;28;20230;-84
2023/04/24 14:14:40;;;;;;;1.50;1.50;;;;;;;;;;5006926;28;20229;-84
2023/04/24 14:17:08;;;;;;;1.90;1.80;;;;;;;;;;5045423;28;20233;-81
2023/04/24 14:19:34;;;;;;;2.30;2.10;;;;;;;;;;5031329;28;20238;-85
2023/04/24 14:22:00;;;;;;;2.50;2.40;;;;;;;;;;5034125;28;20249;-84
2023/04/24 14:24:26;;;;;;;3.63;3.33;;;;;;;;;;5008147;28;20221;-85
2023/04/24 14:26:56;;;;;;;5.40;4.93;;;;;;;;;;5038621;28;20216;-85
2023/04/24 14:29:26;;;;;;;5.07;4.63;;;;;;;;;;5032090;28;20218;-84
2023/04/24 14:32:00;;;;;;;5.70;5.20;;;;;;;;;;5036652;28;20226;-84
2023/04/24 14:34:30;;;;;;;6.07;5.47;;;;;;;;;;5028569;28;20314;-83
2023/04/24 14:36:56;;;;;;;5.53;5.03;;;;;;;;;;5023457;28;20226;-86
2023/04/24 14:39:22;;;;;;;6.30;5.70;;;;;;;;;;5037146;28;20227;-81
2023/04/24 14:41:51;;;;;;;6.57;5.70;;;;;;;;;;5013371;28;20226;-84
2023/04/24 14:44:18;;;;;;;5.93;5.37;;;;;;;;;;5027328;28;20281;-82
2023/04/24 14:46:54;;;;;;;5.97;5.37;;;;;;;;;;5026978;28;20757;-83
2023/04/24 14:49:26;;;;;;;3.97;3.63;;;;;;;;;;5030888;28;20221;-83
2023/04/24 14:51:52;;;;;;;3.80;3.50;;;;;;;;;;5034213;28;20288;-86
2023/04/24 14:54:23;;;;;;;4.83;3.80;;;;;;;;;;5017862;28;20231;-86
2023/04/24 14:56:49;;;;;;;4.60;3.70;;;;;;;;;;5010631;28;20397;-83
2023/04/24 14:59:17;;;;;;;4.73;3.73;;;;;;;;;;5040947;28;20257;-84
2023/04/24 15:01:45;;;;;;;3.53;3.23;;;;;;;;;;5045018;28;20233;-82
2023/04/24 15:04:11;;;;;;;3.70;3.40;;;;;;;;;;5043266;28;20289;-85
2023/04/24 15:06:40;;;;;;;3.67;3.37;;;;;;;;;;5033897;28;20230;-85
2023/04/24 15:09:10;;;;;;;3.60;3.30;;;;;;;;;;5029711;28;20257;-85
2023/04/24 15:11:37;;;;;;;18.07;12.37;;;;;;;;;;5026610;28;20249;-82
2023/04/24 15:14:10;;;;;;;4.23;3.43;;;;;;;;;;5040530;28;20349;-85
2023/04/24 15:16:36;;;;;;;4.00;3.60;;;;;;;;;;5030341;28;20287;-83
2023/04/24 15:19:02;;;;;;;4.63;3.77;;;;;;;;;;5019476;28;20239;-84
2023/04/24 15:21:27;;;;;;;3.93;3.30;;;;;;;;;;5013227;28;20214;-86
2023/04/24 15:24:03;;;;;;;4.67;3.60;;;;;;;;;;5015451;28;20210;-83
2023/04/24 15:26:34;;;;;;;3.37;3.07;;;;;;;;;;5033635;28;20218;-86
2023/04/24 15:29:03;;;;;;;3.60;3.30;;;;;;;;;;5044210;28;20219;-78
2023/04/24 15:31:28;;;;;;;4.50;3.40;;;;;;;;;;5055285;28;20223;-79
2023/04/24 15:33:57;;;;;;;3.73;3.30;;;;;;;;;;5025881;28;20246;-79
2023/04/24 15:36:23;;;;;;;3.90;3.37;;;;;;;;;;5011580;28;20286;-79
2023/04/24 15:38:48;;;;;;;4.10;3.50;;;;;;;;;;5025071;28;20230;-78
2023/04/24 15:41:14;;;;;;;4.00;3.60;;;;;;;;;;5019891;28;20231;-79
2023/04/24 15:43:41;;;;;;;6.17;3.70;;;;;;;;;;5020134;28;20294;-82
2023/04/24 15:46:07;;;;;;;5.40;3.43;;;;;;;;;;5035316;28;20243;-79
2023/04/24 15:48:32;;;;;;;4.27;3.63;;;;;;;;;;5040551;28;20589;-79
2023/04/24 15:51:04;;;;;;;5.10;4.13;;;;;;;;;;5017839;28;20219;-80
2023/04/24 15:53:30;;;;;;;6.67;4.30;;;;;;;;;;5018828;28;20211;-80
2023/04/24 15:56:02;;;;;;;5.00;4.50;;;;;;;;;;5063666;28;20938;-78
2023/04/24 15:58:28;;;;;;;6.93;4.53;;;;;;;;;;5019481;28;20236;-78
2023/04/24 16:00:53;;;;;;;4.53;4.00;;;;;;;;;;5020655;28;20215;-79
2023/04/24 16:03:22;;;;;;;5.77;4.00;;;;;;;;;;5024521;28;20227;-80
2023/04/24 16:05:52;;;;;;;4.87;4.30;;;;;;;;;;5026802;28;20695;-80
2023/04/24 16:08:23;;;;;;;5.67;4.20;;;;;;;;;;5030829;28;20234;-79
2023/04/24 16:10:51;;;;;;;4.93;4.47;;;;;;;;;;5056680;28;20223;-79
2023/04/24 16:13:20;;;;;;;7.50;4.57;;;;;;;;;;5040792;28;20995;-80
2023/04/24 16:15:48;;;;;;;5.73;4.77;;;;;;;;;;5029336;28;20218;-79
2023/04/24 16:18:14;;;;;;;4.90;4.47;;;;;;;;;;5042476;28;21035;-80
2023/04/24 16:20:42;;;;;;;7.07;4.80;;;;;;;;;;5037474;28;20227;-80
2023/04/24 16:23:08;;;;;;;6.53;4.87;;;;;;;;;;5040252;28;20219;-82
2023/04/24 16:25:35;;;;;;;7.73;5.20;;;;;;;;;;5024948;28;20229;-86
2023/04/24 16:28:03;;;;;;;6.57;5.57;;;;;;;;;;5053238;28;20214;-87
2023/04/24 16:30:55;;;;;;;7.90;5.57;;;;;;;;;;5023172;28;20238;-86
2023/04/24 16:33:31;;;;;;;6.27;5.67;;;;;;;;;;5033010;28;20241;-86
2023/04/24 16:36:04;;;;;;;8.70;6.80;;;;;;;;;;5037839;28;20215;-85
2023/04/24 16:38:30;;;;;;;9.37;6.30;;;;;;;;;;5004165;28;20301;-86
2023/04/24 16:41:09;;;;;;;7.37;6.30;;;;;;;;;;5049179;28;20798;-88
2023/04/24 16:44:14;;;;;;;9.27;6.27;;;;;;;;;;5032269;28;20214;-87
2023/04/24 16:47:00;;;;;;;7.50;6.30;;;;;;;;;;5030990;28;20238;-85
2023/04/24 16:49:42;;;;;;;9.83;6.77;;;;;;;;;;5036440;28;20459;-87
2023/04/24 16:52:14;;;;;;;9.33;7.43;;;;;;;;;;5033267;28;20234;-85
2023/04/24 16:54:46;;;;;;;8.67;7.23;;;;;;;;;;5039050;28;20245;-85
2023/04/24 16:57:12;;;;;;;9.67;7.37;;;;;;;;;;5036244;28;20215;-85
2023/04/24 16:59:38;;;;;;;10.17;7.50;;;;;;;;;;5008301;28;20280;-84
2023/04/24 17:02:15;;;;;;;9.07;7.20;;;;;;;;;;5026417;28;20226;-85
2023/04/24 17:05:21;;;;;;;;;;;;;;;;;;;;;
2023/04/24 17:07:59;;;;;;;8.83;7.87;;;;;;;;;;5050695;28;20249;-86
2023/04/24 17:10:28;;;;;;;11.10;8.40;;;;;;;;;;5031070;28;20226;-85
2023/04/24 17:13:01;;;;;;;10.23;8.27;;;;;;;;;;5036255;28;20226;-88
2023/04/24 17:15:50;;;;;;;9.60;8.53;;;;;;;;;;5006884;28;20663;-85
2023/04/24 17:18:25;;;;;;;11.27;8.43;;;;;;;;;;5038896;28;20227;-85
2023/04/24 17:20:52;;;;;;;11.57;9.00;;;;;;;;;;5025012;28;20217;-85
2023/04/24 17:23:21;;;;;;;11.70;9.17;;;;;;;;;;4999138;28;20218;-86
2023/04/24 17:25:48;;;;;;;10.67;7.67;;;;;;;;;;5031152;28;20280;-86
2023/04/24 17:28:25;;;;;;;11.63;8.07;;;;;;;;;;5034010;28;20684;-86
2023/04/24 17:30:53;;;;;;;10.33;7.67;;;;;;;;;;5028258;28;20219;-86
2023/04/24 17:33:20;;;;;;;12.37;9.07;;;;;;;;;;5051654;28;20222;-85
2023/04/24 17:35:49;;;;;;;9.87;6.97;;;;;;;;;;5031266;28;20223;-86
2023/04/24 17:38:15;;;;;;;7.60;5.93;;;;;;;;;;5037563;28;20231;-88
2023/04/24 17:40:44;;;;;;;10.63;5.77;;;;;;;;;;5021695;28;20243;-86
2023/04/24 17:43:17;;;;;;;7.13;5.93;;;;;;;;;;5012470;28;20311;-86
2023/04/24 17:45:44;;;;;;;7.43;5.20;;;;;;;;;;5034003;28;20230;-84
2023/04/24 17:48:11;;;;;;;7.27;5.03;;;;;;;;;;5036107;28;20305;-85
2023/04/24 17:50:40;;;;;;;7.50;4.93;;;;;;;;;;5036662;28;20241;-87
2023/04/24 17:53:07;;;;;;;10.07;4.90;;;;;;;;;;5038037;28;20238;-87
2023/04/24 17:55:38;;;;;;;7.17;4.27;;;;;;;;;;5038493;28;20363;-85
2023/04/24 17:58:21;;;;;;;8.00;4.30;;;;;;;;;;5022521;28;20227;-87
2023/04/24 18:00:50;;;;;;;6.03;4.13;;;;;;;;;;5036889;28;20226;-88
2023/04/24 18:03:20;;;;;;;6.37;4.10;;;;;;;;;;5034615;28;20227;-84
2023/04/24 18:05:48;;;;;;;6.93;4.43;;;;;;;;;;5025284;28;21259;-88
2023/04/24 18:08:14;;;;;;;9.10;5.00;;;;;;;;;;5040830;28;20218;-88
2023/04/24 18:10:42;;;;;;;5.33;4.17;;;;;;;;;;5033330;28;20276;-86
2023/04/24 18:13:16;;;;;;;5.10;4.57;;;;;;;;;;4999657;28;20230;-88
2023/04/24 18:16:02;;;;;;;8.63;4.57;;;;;;;;;;5059293;28;20285;-89
2023/04/24 18:18:43;;;;;;;;;;;;;;;;;;;;;
2023/04/24 18:21:17;;;;;;;6.57;4.33;;;;;;;;;;5035988;28;20227;-87
2023/04/24 18:23:47;;;;;;;6.03;4.00;;;;;;;;;;5028647;28;20203;-86
2023/04/24 18:26:18;;;;;;;6.17;4.10;;;;;;;;;;5018864;28;20223;-86
2023/04/24 18:28:56;;;;;;;;;;;;;;;;;;;;;
2023/04/24 18:31:22;;;;;;;5.80;3.63;;;;;;;;;;5038204;28;20227;-89
2023/04/24 18:33:54;;;;;;;6.27;3.53;;;;;;;;;;5037735;28;20248;-86
2023/04/24 18:36:27;;;;;;;7.00;3.70;;;;;;;;;;5024659;28;20206;-86
2023/04/24 18:38:59;;;;;;;6.17;4.13;;;;;;;;;;5029938;28;20254;-85